Time;durP1;ratioP1;P1;durP2;ratioP2;P2;SDS_P1;SDS_P2;PMS_P1;PMS_P2;Temp;Humidity;BMP_temperature;BMP_pressure;BME280_temperature;BME280_humidity;BME280_pressure;Samples;Min_cycle;Max_cycle;Signal;HPM_P1;HPM_P2
2021/01/16 00:01:06;;;;;;;6.85;6.45;;;23.60;68.80;;;;;;5075956;28;20032;-67
2021/01/16 00:03:34;;;;;;;5.80;5.50;;;23.60;68.00;;;;;;5075950;28;20382;-67
2021/01/16 00:06:03;;;;;;;6.60;6.30;;;23.60;68.50;;;;;;5076067;28;20350;-67
2021/01/16 00:08:32;;;;;;;5.95;5.75;;;23.50;68.20;;;;;;5075758;28;20032;-68
2021/01/16 00:11:00;;;;;;;6.18;5.78;;;23.90;68.70;;;;;;5075811;28;20025;-68
2021/01/16 00:13:33;;;;;;;6.40;6.00;;;24.00;66.70;;;;;;5074682;28;20106;-67
2021/01/16 00:16:01;;;;;;;6.00;5.70;;;23.60;66.60;;;;;;5075583;28;20535;-68
2021/01/16 00:18:29;;;;;;;5.70;5.50;;;23.60;67.80;;;;;;5075772;28;20040;-68
2021/01/16 00:20:59;;;;;;;5.55;5.35;;;23.80;66.90;;;;;;5075626;28;20037;-66
2021/01/16 00:23:28;;;;;;;6.70;6.40;;;23.90;68.70;;;;;;5075607;28;20029;-66
2021/01/16 00:25:57;;;;;;;6.20;5.90;;;24.20;67.60;;;;;;5074248;28;20089;-67
2021/01/16 00:28:31;;;;;;;5.97;5.78;;;24.40;67.60;;;;;;5075380;28;20024;-67
2021/01/16 00:30:59;;;;;;;6.93;6.30;;;24.40;66.50;;;;;;5075268;28;20017;-67
2021/01/16 00:33:31;;;;;;;6.20;6.00;;;24.50;66.50;;;;;;5075399;28;20362;-66
2021/01/16 00:36:00;;;;;;;6.13;5.82;;;24.50;66.90;;;;;;5075299;28;20030;-67
2021/01/16 00:38:29;;;;;;;6.32;6.00;;;24.30;65.10;;;;;;5075242;28;20020;-66
2021/01/16 00:40:57;;;;;;;6.65;6.28;;;24.00;65.10;;;;;;5075127;28;20035;-67
2021/01/16 00:43:25;;;;;;;7.00;6.68;;;24.20;67.10;;;;;;5074937;28;20028;-67
2021/01/16 00:45:52;;;;;;;6.47;6.25;;;24.60;66.90;;;;;;5075000;28;20051;-68
2021/01/16 00:48:23;;;;;;;5.70;5.50;;;24.80;66.20;;;;;;5074987;28;20031;-68
2021/01/16 00:50:53;;;;;;;6.03;5.70;;;24.70;66.00;;;;;;5075033;28;20020;-67
2021/01/16 00:53:21;;;;;;;5.93;5.55;;;25.00;64.60;;;;;;5074932;28;20381;-67
2021/01/16 00:55:49;;;;;;;5.90;5.60;;;25.10;65.50;;;;;;5074830;28;20032;-66
2021/01/16 00:58:21;;;;;;;6.22;6.00;;;25.00;63.90;;;;;;5074887;28;20021;-65
2021/01/16 01:00:50;;;;;;;6.30;6.00;;;25.00;65.20;;;;;;5075070;28;20021;-67
2021/01/16 01:03:23;;;;;;;6.30;6.00;;;25.00;65.20;;;;;;5074680;28;20032;-67
2021/01/16 01:05:51;;;;;;;6.28;6.00;;;25.00;64.10;;;;;;5074750;28;20136;-68
2021/01/16 01:08:31;;;;;;;5.80;5.53;;;25.40;63.20;;;;;;5074645;28;20025;-68
2021/01/16 01:10:58;;;;;;;5.90;5.70;;;25.40;63.70;;;;;;5074699;28;20070;-68
2021/01/16 01:13:26;;;;;;;5.88;5.60;;;25.40;62.90;;;;;;5074547;28;20129;-68
2021/01/16 01:15:53;;;;;;;6.00;5.80;;;25.40;66.40;;;;;;5074280;28;20542;-68
2021/01/16 01:18:20;;;;;;;5.95;5.50;;;25.80;64.00;;;;;;5074543;28;20020;-68
2021/01/16 01:20:48;;;;;;;6.70;6.30;;;25.70;62.90;;;;;;5073961;28;20052;-67
2021/01/16 01:23:15;;;;;;;6.18;5.88;;;25.90;62.80;;;;;;5074291;28;20055;-67
2021/01/16 01:25:42;;;;;;;5.90;5.60;;;25.90;62.00;;;;;;5074230;28;20468;-67
2021/01/16 01:28:09;;;;;;;6.25;5.95;;;26.10;64.10;;;;;;5074220;28;20047;-67
2021/01/16 01:30:37;;;;;;;6.45;6.25;;;26.40;61.50;;;;;;5074269;28;20044;-67
2021/01/16 01:33:14;;;;;;;5.80;5.50;;;26.50;62.00;;;;;;5074237;28;20060;-67
2021/01/16 01:35:41;;;;;;;5.18;4.90;;;26.20;60.50;;;;;;5074193;28;20099;-68
2021/01/16 01:38:14;;;;;;;5.60;5.20;;;26.20;61.60;;;;;;5074152;28;20032;-68
2021/01/16 01:40:41;;;;;;;5.80;5.50;;;26.10;61.00;;;;;;5074097;28;20044;-68
2021/01/16 01:43:09;;;;;;;5.60;5.30;;;26.10;61.30;;;;;;5073999;28;20020;-67
2021/01/16 01:45:36;;;;;;;6.90;6.60;;;25.80;60.00;;;;;;5073870;28;20028;-67
2021/01/16 01:48:04;;;;;;;6.60;6.30;;;25.90;62.00;;;;;;5073730;28;20033;-67
2021/01/16 01:50:32;;;;;;;6.03;5.80;;;26.00;61.60;;;;;;5073809;28;20341;-67
2021/01/16 01:53:02;;;;;;;6.13;5.82;;;26.20;60.30;;;;;;5073929;28;20028;-68
2021/01/16 01:55:29;;;;;;;;;;;26.60;62.00;;;;;;5074290;28;20024;-67
2021/01/16 01:57:59;;;;;;;6.88;6.60;;;26.90;61.60;;;;;;5073762;28;19908;-67
2021/01/16 02:00:28;;;;;;;6.18;5.88;;;27.40;61.10;;;;;;5073882;28;20028;-67
2021/01/16 02:03:02;;;;;;;7.30;6.90;;;27.60;60.30;;;;;;5073635;28;20457;-68
2021/01/16 02:05:29;;;;;;;6.40;6.20;;;27.50;57.90;;;;;;5073572;28;20032;-67
2021/01/16 02:07:59;;;;;;;6.03;5.72;;;27.50;57.20;;;;;;5073444;28;20051;-67
2021/01/16 02:10:27;;;;;;;5.20;5.00;;;27.70;58.00;;;;;;5073745;28;20443;-67
2021/01/16 02:12:56;;;;;;;6.50;6.20;;;27.40;55.70;;;;;;5073539;28;20108;-67
2021/01/16 02:15:23;;;;;;;7.28;6.97;;;27.50;57.80;;;;;;5073305;28;20076;-67
2021/01/16 02:17:56;;;;;;;5.93;5.63;;;27.60;57.90;;;;;;5073520;28;20024;-68
2021/01/16 02:20:29;;;;;;;6.30;6.00;;;27.70;57.30;;;;;;5073407;28;20120;-68
2021/01/16 02:22:59;;;;;;;6.72;6.50;;;27.50;54.10;;;;;;5073413;28;20538;-67
2021/01/16 02:26:04;;;;;;;5.88;5.68;;;27.30;54.10;;;;;;5073342;28;20025;-68
2021/01/16 02:28:35;;;;;;;6.50;6.30;;;26.90;54.60;;;;;;5073156;28;20028;-68
2021/01/16 02:31:05;;;;;;;6.50;6.20;;;27.10;57.40;;;;;;5073342;28;20020;-68
2021/01/16 02:33:33;;;;;;;5.38;5.15;;;27.40;56.00;;;;;;5072327;28;20028;-68
2021/01/16 02:36:14;;;;;;;5.20;4.90;;;27.60;56.00;;;;;;5073070;28;20027;-68
2021/01/16 02:39:03;;;;;;;6.30;6.10;;;27.90;55.50;;;;;;5073064;28;20025;-68
2021/01/16 02:41:48;;;;;;;6.13;5.70;;;28.00;55.00;;;;;;5073093;28;20024;-68
2021/01/16 02:44:26;;;;;;;5.15;4.75;;;28.30;54.90;;;;;;5073058;28;20048;-68
2021/01/16 02:47:01;;;;;;;6.00;5.80;;;28.70;57.00;;;;;;5071792;28;20496;-68
2021/01/16 02:49:42;;;;;;;5.95;5.45;;;28.40;53.20;;;;;;5072827;28;20107;-67
2021/01/16 02:52:13;;;;;;;5.35;5.05;;;28.40;62.60;;;;;;5073102;28;20017;-67
2021/01/16 02:54:43;;;;;;;6.55;6.20;;;28.10;59.90;;;;;;5073023;28;20017;-67
2021/01/16 02:57:12;;;;;;;6.22;5.78;;;28.40;59.40;;;;;;5072934;28;20040;-66
2021/01/16 02:59:42;;;;;;;5.88;5.47;;;27.50;60.60;;;;;;5072850;28;20039;-68
2021/01/16 03:02:12;;;;;;;6.65;6.20;;;27.30;61.60;;;;;;5073083;28;20567;-66
2021/01/16 03:04:40;;;;;;;6.20;5.90;;;27.20;65.70;;;;;;5072903;28;20071;-66
2021/01/16 03:07:10;;;;;;;5.55;5.25;;;27.30;66.30;;;;;;5072842;28;20476;-68
2021/01/16 03:09:39;;;;;;;5.25;4.82;;;27.60;67.50;;;;;;5072825;28;20440;-66
2021/01/16 03:12:11;;;;;;;6.28;5.97;;;27.70;66.90;;;;;;5072801;28;20448;-67
2021/01/16 03:14:48;;;;;;;5.70;5.50;;;27.40;66.20;;;;;;5072727;28;20028;-66
2021/01/16 03:17:17;;;;;;;5.63;5.22;;;27.30;67.50;;;;;;5072816;28;20697;-67
2021/01/16 03:19:49;;;;;;;5.47;5.18;;;27.40;67.50;;;;;;5072809;28;20024;-68
2021/01/16 03:22:28;;;;;;;5.88;5.50;;;27.40;66.10;;;;;;5072716;28;20028;-67
2021/01/16 03:24:59;;;;;;;5.57;5.30;;;27.60;67.50;;;;;;5072846;28;20024;-68
2021/01/16 03:27:27;;;;;;;6.70;6.40;;;27.60;67.10;;;;;;5072704;28;20051;-67
2021/01/16 03:29:54;;;;;;;6.40;6.07;;;27.60;67.50;;;;;;5072555;28;20044;-67
2021/01/16 03:32:23;;;;;;;5.60;5.20;;;27.70;67.90;;;;;;5072719;28;20055;-68
2021/01/16 03:34:52;;;;;;;6.45;6.05;;;27.50;65.90;;;;;;5072724;28;20020;-67
2021/01/16 03:37:20;;;;;;;6.88;6.40;;;27.50;69.10;;;;;;5072572;28;20048;-68
2021/01/16 03:39:48;;;;;;;6.13;5.88;;;27.60;67.50;;;;;;5072470;28;20107;-68
2021/01/16 03:42:15;;;;;;;6.25;5.95;;;27.70;67.50;;;;;;5072504;28;20426;-68
2021/01/16 03:44:44;;;;;;;6.22;5.93;;;27.60;67.00;;;;;;5075015;28;20047;-72
2021/01/16 03:47:11;;;;;;;5.72;5.43;;;27.40;65.70;;;;;;5076266;28;20099;-68
2021/01/16 03:49:39;;;;;;;5.35;5.00;;;27.40;67.10;;;;;;5076251;28;20487;-69
2021/01/16 03:52:06;;;;;;;6.82;6.43;;;27.30;67.00;;;;;;5076212;28;20024;-66
2021/01/16 03:54:34;;;;;;;6.50;6.20;;;27.20;67.30;;;;;;5076120;28;20043;-61
2021/01/16 03:57:05;;;;;;;5.00;4.70;;;27.00;68.80;;;;;;5075943;28;20469;-67
2021/01/16 03:59:32;;;;;;;6.10;5.90;;;27.10;68.40;;;;;;5076050;28;20024;-64
2021/01/16 04:01:59;;;;;;;5.50;5.10;;;27.40;67.50;;;;;;5075863;28;20021;-64
2021/01/16 04:04:27;;;;;;;5.00;4.60;;;27.50;69.10;;;;;;5076122;28;20023;-71
2021/01/16 04:06:54;;;;;;;6.70;6.40;;;;;;;;;;5075773;28;20033;-69
2021/01/16 04:09:21;;;;;;;6.15;5.93;;;;;;;;;;5075663;28;20074;-65
2021/01/16 04:11:48;;;;;;;6.10;5.70;;;27.80;81.10;;;;;;5075755;28;20035;-62
2021/01/16 04:14:15;;;;;;;6.13;5.82;;;27.90;80.80;;;;;;5075706;28;20020;-70
2021/01/16 04:16:43;;;;;;;6.80;6.50;;;27.80;83.30;;;;;;5075541;28;20040;-68
2021/01/16 04:19:10;;;;;;;6.35;5.95;;;27.80;80.50;;;;;;5075624;28;20385;-68
2021/01/16 04:21:38;;;;;;;5.65;5.35;;;27.40;81.70;;;;;;5075519;28;20020;-68
2021/01/16 04:24:05;;;;;;;6.95;6.60;;;27.40;81.90;;;;;;5075487;28;20056;-71
2021/01/16 04:26:33;;;;;;;5.80;5.50;;;27.30;81.40;;;;;;5075290;28;20029;-70
2021/01/16 04:29:00;;;;;;;5.72;5.28;;;27.40;82.20;;;;;;5075371;28;20028;-70
2021/01/16 04:31:27;;;;;;;5.75;5.55;;;27.30;81.30;;;;;;5075475;28;20021;-70
2021/01/16 04:33:55;;;;;;;5.10;4.90;;;27.30;82.30;;;;;;5075389;28;20027;-71
2021/01/16 04:36:22;;;;;;;5.28;4.63;;;27.40;81.50;;;;;;5075611;28;20021;-70
2021/01/16 04:38:50;;;;;;;6.00;5.60;;;27.50;81.00;;;;;;5075304;28;20013;-64
2021/01/16 04:41:20;;;;;;;4.95;4.75;;;27.30;80.00;;;;;;5075232;28;20025;-69
2021/01/16 04:43:48;;;;;;;4.25;3.95;;;27.30;80.30;;;;;;5075092;28;20449;-63
2021/01/16 04:46:18;;;;;;;5.90;5.40;;;27.30;80.30;;;;;;5075183;28;20078;-71
2021/01/16 04:48:57;;;;;;;5.80;5.40;;;27.50;80.00;;;;;;5075006;28;20031;-71
2021/01/16 04:51:30;;;;;;;5.20;4.80;;;27.30;80.10;;;;;;5075383;28;20025;-64
2021/01/16 04:53:59;;;;;;;5.90;5.57;;;27.10;80.40;;;;;;5075019;28;20023;-66
2021/01/16 04:56:40;;;;;;;5.95;5.65;;;26.90;80.90;;;;;;5073790;28;20380;-69
2021/01/16 04:59:07;;;;;;;4.80;4.60;;;26.90;81.80;;;;;;5073569;28;20035;-72
2021/01/16 05:01:35;;;;;;;6.10;5.75;;;26.90;79.60;;;;;;5074954;28;20024;-72
2021/01/16 05:04:03;;;;;;;6.00;5.70;;;26.70;79.60;;;;;;5074709;28;20161;-71
2021/01/16 05:06:31;;;;;;;5.55;5.22;;;26.50;80.40;;;;;;5074788;28;20101;-72
2021/01/16 05:08:59;;;;;;;5.07;4.78;;;26.60;81.10;;;;;;5074631;28;20533;-72
2021/01/16 05:11:26;;;;;;;6.47;6.07;;;26.60;80.50;;;;;;5074612;28;20020;-69
2021/01/16 05:14:17;;;;;;;5.68;5.30;;;26.50;81.50;;;;;;5074759;28;20457;-69
2021/01/16 05:16:50;;;;;;;5.32;5.03;;;26.50;81.20;;;;;;5074660;28;20068;-69
2021/01/16 05:19:26;;;;;;;7.18;6.78;;;26.70;79.20;;;;;;5074494;28;20020;-69
2021/01/16 05:21:54;;;;;;;5.90;5.60;;;26.80;80.40;;;;;;5073363;28;20025;-70
2021/01/16 05:24:22;;;;;;;6.60;6.30;;;26.90;79.30;;;;;;5074281;28;20024;-71
2021/01/16 05:27:01;;;;;;;6.38;6.15;;;26.90;72.90;;;;;;5074133;28;20024;-68
2021/01/16 05:29:31;;;;;;;6.70;6.30;;;27.00;71.70;;;;;;5073920;28;20391;-69
2021/01/16 05:32:01;;;;;;;6.78;6.47;;;26.90;72.60;;;;;;5074212;28;20072;-68
2021/01/16 05:34:31;;;;;;;6.90;6.60;;;26.60;71.30;;;;;;5074226;28;20361;-69
2021/01/16 05:36:59;;;;;;;7.20;6.70;;;26.50;72.00;;;;;;5074025;28;20439;-69
2021/01/16 05:39:29;;;;;;;7.68;7.28;;;26.50;73.50;;;;;;5074105;28;20029;-67
2021/01/16 05:42:03;;;;;;;7.30;7.00;;;26.60;72.10;;;;;;5074075;28;20029;-68
2021/01/16 05:44:31;;;;;;;6.38;6.07;;;26.60;71.50;;;;;;5074008;28;20028;-68
2021/01/16 05:46:58;;;;;;;7.13;6.72;;;26.60;72.50;;;;;;5073979;28;20020;-69
2021/01/16 05:49:27;;;;;;;6.47;6.18;;;26.60;71.70;;;;;;5073859;28;20097;-69
2021/01/16 05:51:55;;;;;;;5.93;5.53;;;26.80;73.10;;;;;;5073805;28;20377;-69
2021/01/16 05:54:23;;;;;;;6.10;5.70;;;27.10;71.20;;;;;;5074197;28;20104;-68
2021/01/16 05:56:50;;;;;;;5.20;4.90;;;27.10;71.10;;;;;;5073838;28;20055;-69
2021/01/16 05:59:19;;;;;;;6.10;5.70;;;27.40;71.40;;;;;;5073794;28;20385;-72
2021/01/16 06:01:51;;;;;;;6.40;6.10;;;27.10;70.20;;;;;;5073597;28;20028;-69
2021/01/16 06:04:20;;;;;;;5.60;5.40;;;27.40;71.10;;;;;;5073467;28;20078;-71
2021/01/16 06:06:48;;;;;;;5.20;5.00;;;27.70;70.50;;;;;;5073455;28;20020;-68
2021/01/16 06:09:20;;;;;;;6.38;6.00;;;27.50;70.10;;;;;;5072099;28;20028;-68
2021/01/16 06:11:51;;;;;;;6.82;6.32;;;27.50;71.10;;;;;;5073531;28;20021;-67
2021/01/16 06:14:20;;;;;;;6.30;5.90;;;27.60;70.80;;;;;;5073470;28;20020;-68
2021/01/16 06:16:58;;;;;;;4.90;4.70;;;27.70;71.90;;;;;;5073414;28;20492;-68
2021/01/16 06:19:26;;;;;;;5.70;5.40;;;27.80;71.70;;;;;;5073469;28;20028;-68
2021/01/16 06:21:55;;;;;;;5.95;5.65;;;27.60;70.30;;;;;;5073505;28;20036;-68
2021/01/16 06:24:24;;;;;;;6.38;5.93;;;27.30;72.70;;;;;;5073478;28;20389;-68
2021/01/16 06:26:57;;;;;;;5.67;5.27;;;27.40;72.70;;;;;;5073382;28;20495;-68
2021/01/16 06:29:36;;;;;;;5.40;5.10;;;27.80;73.40;;;;;;5073357;28;20502;-69
2021/01/16 06:32:11;;;;;;;4.40;4.20;;;27.90;74.00;;;;;;5073301;28;20362;-69
2021/01/16 06:34:42;;;;;;;7.78;7.28;;;28.20;71.60;;;;;;5073268;28;20031;-68
2021/01/16 06:37:14;;;;;;;7.78;7.30;;;27.90;71.40;;;;;;5073222;28;20098;-69
2021/01/16 06:39:46;;;;;;;6.70;6.40;;;28.20;72.40;;;;;;5073433;28;20086;-70
2021/01/16 06:42:21;;;;;;;6.30;6.10;;;28.50;71.40;;;;;;5073467;28;20029;-69
2021/01/16 06:44:48;;;;;;;6.68;6.28;;;28.20;72.00;;;;;;5073251;28;20039;-69
2021/01/16 06:47:15;;;;;;;6.43;6.20;;;28.40;72.70;;;;;;5073349;28;20477;-68
2021/01/16 06:49:48;;;;;;;5.85;5.50;;;28.50;72.10;;;;;;5073080;28;20024;-69
2021/01/16 06:52:16;;;;;;;5.30;5.00;;;28.70;72.60;;;;;;5073007;28;20365;-68
2021/01/16 06:54:48;;;;;;;5.70;5.40;;;28.90;72.30;;;;;;5072952;28;20017;-69
2021/01/16 06:57:16;;;;;;;7.10;6.70;;;29.10;71.60;;;;;;5073107;28;20526;-69
2021/01/16 06:59:45;;;;;;;7.20;6.90;;;29.00;72.80;;;;;;5072982;28;20482;-69
2021/01/16 07:02:28;;;;;;;7.10;6.70;;;29.00;72.30;;;;;;5072940;28;20035;-70
2021/01/16 07:05:19;;;;;;;7.20;6.70;;;29.10;71.10;;;;;;5072927;28;20048;-69
2021/01/16 07:07:51;;;;;;;7.15;6.85;;;29.40;70.90;;;;;;5065800;28;20502;-68
2021/01/16 07:10:21;;;;;;;7.60;7.20;;;29.00;71.20;;;;;;5072811;28;20066;-69
2021/01/16 07:12:52;;;;;;;7.65;7.35;;;28.80;71.60;;;;;;5072867;28;20052;-68
2021/01/16 07:15:23;;;;;;;7.72;7.22;;;29.10;72.90;;;;;;5072716;28;20041;-69
2021/01/16 07:17:51;;;;;;;7.80;7.30;;;29.20;71.90;;;;;;5072841;28;20016;-68
2021/01/16 07:20:19;;;;;;;7.45;7.15;;;28.90;71.70;;;;;;5076464;28;20469;-68
2021/01/16 07:22:51;;;;;;;7.60;7.20;;;29.00;72.50;;;;;;5076980;28;20104;-68
2021/01/16 07:25:21;;;;;;;6.97;6.70;;;28.60;72.70;;;;;;5076691;28;20101;-69
2021/01/16 07:27:50;;;;;;;7.47;6.90;;;28.10;72.60;;;;;;5076489;28;20028;-68
2021/01/16 07:30:18;;;;;;;6.77;6.47;;;27.70;73.00;;;;;;5076596;28;20261;-69
2021/01/16 07:32:51;;;;;;;7.68;7.22;;;27.20;73.10;;;;;;5075160;28;20021;-68
2021/01/16 07:35:24;;;;;;;7.70;7.20;;;27.00;73.50;;;;;;5076764;28;20017;-70
2021/01/16 07:37:53;;;;;;;7.50;7.20;;;26.60;74.80;;;;;;5076527;28;20464;-69
2021/01/16 07:40:26;;;;;;;8.02;7.53;;;26.40;75.40;;;;;;5076308;28;20016;-70
2021/01/16 07:42:59;;;;;;;7.82;7.35;;;26.30;77.00;;;;;;5076429;28;20379;-70
2021/01/16 07:45:34;;;;;;;7.88;7.38;;;26.10;77.40;;;;;;5075275;28;20029;-70
2021/01/16 07:48:05;;;;;;;8.40;7.80;;;25.80;77.70;;;;;;5076259;28;20358;-68
2021/01/16 07:50:38;;;;;;;7.88;7.57;;;25.50;79.00;;;;;;5076223;28;20055;-68
2021/01/16 07:53:07;;;;;;;7.85;7.55;;;25.30;78.80;;;;;;5076116;28;20028;-69
2021/01/16 07:55:38;;;;;;;7.40;7.10;;;25.20;80.30;;;;;;5076068;28;20025;-68
2021/01/16 07:58:28;;;;;;;8.00;7.70;;;25.20;79.20;;;;;;5076150;28;20096;-70
2021/01/16 08:00:58;;;;;;;;;;;25.40;79.60;;;;;;5076466;28;20414;-68
2021/01/16 08:03:28;;;;;;;8.25;7.70;;;25.20;79.80;;;;;;5076006;28;19911;-67
2021/01/16 08:06:24;;;;;;;8.20;7.70;;;24.90;80.50;;;;;;5076297;28;20099;-65
2021/01/16 08:08:51;;;;;;;7.63;7.30;;;24.60;80.90;;;;;;5075882;28;20028;-70
2021/01/16 08:11:25;;;;;;;7.63;7.25;;;24.50;80.50;;;;;;5075980;28;20024;-65
2021/01/16 08:14:02;;;;;;;7.57;7.10;;;24.60;81.20;;;;;;5075781;28;20016;-66
2021/01/16 08:16:29;;;;;;;7.50;7.10;;;24.30;80.90;;;;;;5075819;28;20060;-65
2021/01/16 08:19:25;;;;;;;7.93;7.60;;;23.80;81.20;;;;;;5075724;28;20025;-65
2021/01/16 08:21:55;;;;;;;7.80;7.40;;;23.30;83.00;;;;;;5075757;28;20012;-70
2021/01/16 08:24:27;;;;;;;7.63;7.13;;;22.90;84.30;;;;;;5075624;28;20020;-70
2021/01/16 08:27:02;;;;;;;7.90;7.50;;;22.70;85.30;;;;;;5075797;28;20303;-70
2021/01/16 08:29:31;;;;;;;7.78;7.28;;;22.50;86.10;;;;;;5075086;28;20103;-68
2021/01/16 08:32:11;;;;;;;8.02;7.60;;;22.40;86.60;;;;;;5074703;28;20508;-69
2021/01/16 08:34:57;;;;;;;7.55;7.20;;;22.40;87.40;;;;;;5075550;28;20021;-69
2021/01/16 08:37:51;;;;;;;7.25;6.80;;;22.30;88.00;;;;;;5075290;28;20031;-70
2021/01/16 08:40:38;;;;;;;6.90;6.50;;;22.30;87.70;;;;;;5072978;28;20086;-67
2021/01/16 08:43:05;;;;;;;8.05;7.55;;;22.20;88.00;;;;;;5075160;28;20024;-66
2021/01/16 08:45:33;;;;;;;6.85;6.50;;;22.10;87.00;;;;;;5075120;28;20028;-67
2021/01/16 08:48:01;;;;;;;7.43;6.90;;;22.10;88.40;;;;;;5075000;28;20029;-67
2021/01/16 08:50:37;;;;;;;12.65;11.55;;;22.00;88.80;;;;;;5075113;28;20384;-68
2021/01/16 08:53:25;;;;;;;7.22;6.82;;;21.90;89.80;;;;;;5075171;28;20024;-67
2021/01/16 08:55:52;;;;;;;5.90;5.60;;;21.80;89.80;;;;;;5074912;28;20023;-67
2021/01/16 08:58:27;;;;;;;7.45;7.05;;;21.70;90.10;;;;;;5075006;28;20050;-67
2021/01/16 09:00:54;;;;;;;7.00;6.75;;;21.70;90.10;;;;;;5074993;28;20031;-65
2021/01/16 09:03:25;;;;;;;6.65;6.28;;;21.60;90.30;;;;;;5074778;28;20028;-67
2021/01/16 09:06:02;;;;;;;8.75;8.20;;;21.50;90.40;;;;;;5074829;28;20384;-67
2021/01/16 09:08:30;;;;;;;7.93;7.38;;;21.50;90.40;;;;;;5074788;28;20623;-67
2021/01/16 09:11:13;;;;;;;11.60;10.50;;;21.40;90.50;;;;;;5074660;28;20052;-68
2021/01/16 09:13:45;;;;;;;8.30;7.80;;;21.30;90.90;;;;;;5074787;28;20426;-67
2021/01/16 09:16:34;;;;;;;8.15;7.75;;;21.30;90.90;;;;;;5074296;28;20041;-67
2021/01/16 09:19:03;;;;;;;7.10;6.70;;;21.20;90.90;;;;;;5074395;28;20020;-67
2021/01/16 09:21:30;;;;;;;7.80;7.40;;;21.20;91.00;;;;;;5074371;28;20452;-68
2021/01/16 09:23:58;;;;;;;7.80;7.40;;;21.20;91.40;;;;;;5074422;28;20035;-68
2021/01/16 09:26:28;;;;;;;6.80;6.47;;;21.20;91.60;;;;;;5074270;28;20025;-67
2021/01/16 09:28:57;;;;;;;7.68;7.28;;;21.10;91.80;;;;;;5074234;28;20025;-67
2021/01/16 09:31:30;;;;;;;7.85;7.35;;;21.10;92.00;;;;;;5074250;28;20071;-66
2021/01/16 09:34:17;;;;;;;7.63;7.30;;;21.00;92.40;;;;;;5074175;28;20013;-66
2021/01/16 09:36:56;;;;;;;7.20;6.80;;;21.00;92.70;;;;;;5074159;28;20153;-67
2021/01/16 09:39:27;;;;;;;8.45;7.95;;;20.90;92.90;;;;;;5073945;28;20025;-69
2021/01/16 09:42:00;;;;;;;8.20;7.80;;;20.90;93.30;;;;;;5073586;28;20082;-68
2021/01/16 09:44:39;;;;;;;7.80;7.40;;;20.80;93.30;;;;;;5073941;28;20473;-66
2021/01/16 09:47:26;;;;;;;8.70;8.15;;;20.80;93.60;;;;;;5073937;28;20059;-68
2021/01/16 09:50:14;;;;;;;8.90;8.30;;;20.70;93.90;;;;;;5073748;28;20027;-67
2021/01/16 09:52:50;;;;;;;7.93;7.40;;;20.70;94.10;;;;;;5073498;28;20122;-67
2021/01/16 09:55:30;;;;;;;8.32;8.00;;;20.60;94.30;;;;;;5072312;28;20495;-66
2021/01/16 09:57:59;;;;;;;8.30;7.82;;;20.50;94.50;;;;;;5073724;28;20102;-66
2021/01/16 10:00:29;;;;;;;7.45;7.15;;;20.50;94.70;;;;;;5073739;28;20469;-66
2021/01/16 10:03:02;;;;;;;8.27;7.78;;;20.50;95.00;;;;;;5073494;28;20031;-66
2021/01/16 10:05:41;;;;;;;8.48;7.90;;;20.40;95.10;;;;;;5073842;28;20369;-66
2021/01/16 10:08:09;;;;;;;8.68;8.18;;;20.40;95.00;;;;;;5073896;28;20023;-67
2021/01/16 10:10:44;;;;;;;8.00;7.47;;;20.30;95.00;;;;;;5073626;28;20027;-65
2021/01/16 10:13:13;;;;;;;7.78;7.40;;;20.30;95.10;;;;;;5073486;28;20419;-65
2021/01/16 10:15:51;;;;;;;7.10;6.70;;;20.20;95.10;;;;;;5073376;28;20044;-68
2021/01/16 10:18:20;;;;;;;6.90;6.50;;;20.20;95.40;;;;;;5073714;28;20095;-70
2021/01/16 10:21:08;;;;;;;7.40;7.10;;;20.10;95.30;;;;;;5073440;28;20028;-67
2021/01/16 10:23:42;;;;;;;7.13;6.78;;;20.10;95.20;;;;;;5064442;28;20135;-67
2021/01/16 10:26:16;;;;;;;7.07;6.70;;;20.00;95.50;;;;;;5073327;28;20020;-67
2021/01/16 10:28:55;;;;;;;8.20;7.80;;;19.90;95.50;;;;;;5073429;28;20029;-67
2021/01/16 10:31:29;;;;;;;7.65;7.20;;;19.90;95.40;;;;;;5073269;28;20040;-67
2021/01/16 10:34:13;;;;;;;7.15;6.85;;;19.90;95.60;;;;;;5073208;28;20099;-67
2021/01/16 10:36:42;;;;;;;8.05;7.65;;;19.90;95.50;;;;;;5073231;28;20032;-67
2021/01/16 10:39:16;;;;;;;8.40;7.80;;;19.80;95.50;;;;;;5073115;28;20070;-67
2021/01/16 10:41:46;;;;;;;7.20;6.90;;;19.80;95.60;;;;;;5073455;28;20432;-66
2021/01/16 10:44:23;;;;;;;7.85;7.35;;;19.80;95.80;;;;;;5072982;28;20048;-68
2021/01/16 10:46:53;;;;;;;8.27;7.85;;;19.70;95.80;;;;;;5073012;28;20044;-66
2021/01/16 10:49:30;;;;;;;7.55;6.80;;;19.70;95.80;;;;;;5072969;28;20112;-68
2021/01/16 10:52:02;;;;;;;7.00;6.70;;;19.70;96.00;;;;;;5073186;28;20059;-71
2021/01/16 10:54:31;;;;;;;7.53;7.10;;;19.70;95.90;;;;;;5072135;28;20090;-68
2021/01/16 10:57:04;;;;;;;7.60;7.10;;;19.70;96.20;;;;;;5072988;28;20021;-65
2021/01/16 10:59:33;;;;;;;7.75;7.15;;;19.70;96.40;;;;;;5072969;28;20082;-66
2021/01/16 11:02:12;;;;;;;8.40;7.80;;;19.60;96.50;;;;;;5072969;28;20028;-66
2021/01/16 11:04:41;;;;;;;8.15;7.75;;;19.60;96.70;;;;;;5072962;28;20070;-69
2021/01/16 11:07:28;;;;;;;7.55;7.18;;;19.50;97.00;;;;;;5073021;28;20029;-66
2021/01/16 11:10:15;;;;;;;8.30;7.65;;;19.40;97.30;;;;;;5072866;28;20031;-66
2021/01/16 11:12:44;;;;;;;8.27;7.72;;;19.40;97.50;;;;;;5072829;28;20017;-68
2021/01/16 11:15:30;;;;;;;8.02;7.43;;;19.30;97.50;;;;;;5072574;28;20496;-66
2021/01/16 11:18:00;;;;;;;6.88;6.50;;;19.30;97.80;;;;;;5072783;28;20070;-66
2021/01/16 11:20:29;;;;;;;8.25;7.82;;;19.20;97.80;;;;;;5072628;28;20021;-70
2021/01/16 11:23:29;;;;;;;8.38;7.90;;;19.20;97.80;;;;;;5072696;28;20017;-65
2021/01/16 11:25:57;;;;;;;7.00;6.70;;;19.20;98.00;;;;;;5072595;28;20035;-67
2021/01/16 11:28:26;;;;;;;7.63;7.13;;;19.20;98.20;;;;;;5072585;28;20388;-65
2021/01/16 11:31:29;;;;;;;7.97;7.20;;;19.20;98.20;;;;;;5072552;28;20426;-67
2021/01/16 11:34:09;;;;;;;6.82;6.40;;;19.10;98.40;;;;;;5072602;28;20013;-66
2021/01/16 11:36:52;;;;;;;8.25;7.80;;;19.10;98.60;;;;;;5072530;28;20048;-66
2021/01/16 11:39:42;;;;;;;8.10;7.53;;;19.00;98.60;;;;;;5072517;28;20113;-66
2021/01/16 11:42:10;;;;;;;6.90;6.40;;;19.00;98.80;;;;;;5072512;28;20029;-66
2021/01/16 11:44:54;;;;;;;8.40;7.90;;;19.00;99.00;;;;;;5072416;28;20033;-66
2021/01/16 11:47:21;;;;;;;7.88;7.25;;;18.90;99.30;;;;;;5072500;28;20021;-66
2021/01/16 11:49:49;;;;;;;8.57;7.78;;;18.90;99.50;;;;;;5072273;28;20070;-66
2021/01/16 11:52:17;;;;;;;6.82;6.43;;;18.90;99.80;;;;;;5072316;28;20353;-67
2021/01/16 11:54:44;;;;;;;8.18;7.50;;;18.90;99.90;;;;;;5072281;28;20488;-66
2021/01/16 11:57:15;;;;;;;8.55;8.02;;;18.80;99.90;;;;;;5072437;28;20517;-65
2021/01/16 11:59:43;;;;;;;7.70;6.57;;;18.80;99.90;;;;;;5071136;28;20362;-67
2021/01/16 12:02:15;;;;;;;8.05;7.55;;;18.70;99.90;;;;;;5072405;28;20389;-67
2021/01/16 12:04:46;;;;;;;7.22;6.90;;;18.70;99.90;;;;;;5073199;28;20510;-67
2021/01/16 12:07:18;;;;;;;7.53;6.90;;;18.60;99.90;;;;;;5075910;28;20381;-67
2021/01/16 12:09:47;;;;;;;6.57;6.15;;;18.60;99.90;;;;;;5075834;28;20500;-67
2021/01/16 12:12:15;;;;;;;7.35;6.95;;;18.60;99.90;;;;;;5075836;28;20020;-70
2021/01/16 12:14:43;;;;;;;7.63;7.00;;;18.60;99.90;;;;;;5075647;28;20033;-67
2021/01/16 12:17:13;;;;;;;6.65;6.05;;;18.50;99.90;;;;;;5075798;28;20012;-67
2021/01/16 12:19:41;;;;;;;7.68;7.07;;;18.50;99.90;;;;;;5075791;28;20033;-66
2021/01/16 12:22:12;;;;;;;7.90;7.47;;;18.40;99.90;;;;;;5075626;28;20032;-66
2021/01/16 12:24:40;;;;;;;7.35;7.03;;;18.40;99.90;;;;;;5075560;28;20085;-66
2021/01/16 12:27:07;;;;;;;6.38;5.88;;;18.40;99.90;;;;;;5075476;28;20039;-66
2021/01/16 12:29:39;;;;;;;8.02;7.40;;;18.30;99.90;;;;;;5075407;28;20119;-66
2021/01/16 12:32:11;;;;;;;8.52;8.02;;;18.30;99.90;;;;;;5075696;28;20504;-65
2021/01/16 12:34:46;;;;;;;7.85;7.18;;;18.30;99.90;;;;;;5075581;28;20017;-66
2021/01/16 12:37:14;;;;;;;8.20;7.72;;;18.30;99.90;;;;;;5075484;28;20017;-65
2021/01/16 12:39:44;;;;;;;8.00;7.55;;;18.30;99.90;;;;;;5075307;28;20025;-65
2021/01/16 12:42:12;;;;;;;7.38;6.95;;;18.20;99.90;;;;;;5075365;28;20021;-66
2021/01/16 12:44:40;;;;;;;7.47;7.00;;;18.20;99.90;;;;;;5075217;28;20033;-66
2021/01/16 12:47:09;;;;;;;8.30;7.68;;;18.20;99.90;;;;;;5075272;28;20025;-65
2021/01/16 12:49:38;;;;;;;7.95;7.20;;;18.20;99.90;;;;;;5075018;28;20491;-65
2021/01/16 12:52:06;;;;;;;7.40;6.80;;;18.10;99.90;;;;;;5075259;28;20039;-67
2021/01/16 12:54:33;;;;;;;8.43;7.82;;;18.10;99.90;;;;;;5075021;28;20017;-65
2021/01/16 12:57:02;;;;;;;8.32;7.82;;;18.00;99.90;;;;;;5075059;28;20020;-67
2021/01/16 12:59:29;;;;;;;7.72;7.20;;;18.00;99.90;;;;;;5075201;28;20020;-65
2021/01/16 13:01:57;;;;;;;7.78;7.20;;;18.00;99.90;;;;;;5074902;28;20036;-65
2021/01/16 13:04:24;;;;;;;8.18;7.68;;;18.00;99.90;;;;;;5075049;28;20048;-63
2021/01/16 13:06:52;;;;;;;8.40;8.00;;;18.00;99.90;;;;;;5075172;28;20095;-67
2021/01/16 13:09:19;;;;;;;8.10;7.45;;;18.00;99.90;;;;;;5074746;28;20020;-67
2021/01/16 13:11:51;;;;;;;7.63;7.03;;;17.90;99.90;;;;;;5074790;28;20024;-68